Terminal Aerodrome Forecast
Issued by NWS

Home | Current Version | Previous Version | Text Only | Print | Product List | Glossary On
Versions: 1 2 3 4 5 6 7 8 9 10 11 12 13 14 15 16 17 18 19 20 21 22 23 24 25 26
000
FTUS41 KPBZ 220500
TAFLBE
TAF
KLBE 220523Z 2206/2306 21005KT P6SM SCT015 OVC120
      TEMPO 2206/2208 BKN015
     FM220800 VRB03KT 4SM BR BKN015 OVC040
      TEMPO 2209/2212 BKN008 OVC015
     FM221500 22005KT 6SM -RA VCTS BKN035CB
     FM230100 VRB04KT P6SM BKN040=

USA.gov is the U.S. government's official web portal to all federal, state and local government web resources and services.